Terminal Aerodrome Forecast
Issued by NWS

Current Version | Previous Version | Graphics & Text | Print | Product List | Glossary On
Versions: 1 2 3 4 5 6 7 8 9 10 11 12 13 14 15
000
FTUS41 KRNK 281729
TAFLWB
TAF
KLWB 281729Z 2818/2918 24004KT P6SM VCSH SCT050 OVC090
      TEMPO 2818/2819 4SM TSRA BR OVC040CB
     FM282000 25005KT P6SM VCTS BKN045CB
     FM290000 26006KT P6SM BKN060
     FM290300 VRB03KT 5SM BR BKN025
     FM290600 25005KT 3SM BR BKN020
     FM291300 28008KT P6SM SCT040
     FM291400 28008KT P6SM SCT250=

USA.gov is the U.S. government's official web portal to all federal, state and local government web resources and services.